logo
Rechercher aéroport 
image banner adimage banner adimage banner ad
image banner ad

VT40 - Wenlock Crossing

Situé à Ferdinand, United States

ICAO - VT40, IATA -

Données fournies par Airmate  

Information générale

Coordonnées: N44°46'37" W71°45'5"
Élévation : 1157 feet MSL.
Variation magnétique : -17° East
Voir autres Aéroports à Vermont

Données opérationnelles

Special qualification required
Heure actuelle UTC:
Heure actuelle locale:
Météo à : KCDA - Caledonia County ( 31 km )
METAR: KCDA 171735Z AUTO 13006KT 10SM SCT047 SCT060 BKN080 22/15 A3012 RMK AO2 T02160151
Voir NOTAMs / SUP AIP / TFR affectant cet aéroport [VIEW]
Fréquences de communication: [VIEW]

Pistes:

Identifiant RWYQFULongueur (ft)Largeur (ft)SurfaceLDA (ft)
H1195150GRAVEL / CINDERS / CRUSHED ROCK / CORAL/SHELLS / SLAG
195150GRAVEL / CINDERS / CRUSHED ROCK / CORAL/SHELLS / SLAG

Coordonnées de l'aéroport

Adresse: Ferdinand United States

Vue satellite de VT40